Time;durP1;ratioP1;P1;durP2;ratioP2;P2;SDS_P1;SDS_P2;PMS_P1;PMS_P2;Temp;Humidity;BMP_temperature;BMP_pressure;BME280_temperature;BME280_humidity;BME280_pressure;Samples;Min_cycle;Max_cycle;Signal;HPM_P1;HPM_P2
2023/09/02 00:00:51;;;;;;;17.70;9.07;;;;;;;16.17;100.00;101557.88;5086532;28;20036;-73
2023/09/02 00:03:17;;;;;;;18.02;10.20;;;;;;;16.22;100.00;101565.31;5083278;28;20031;-73
2023/09/02 00:05:42;;;;;;;20.00;9.77;;;;;;;16.25;100.00;101556.81;5068475;28;20485;-73
2023/09/02 00:08:07;;;;;;;17.95;10.55;;;;;;;16.25;100.00;101554.13;5079562;28;20028;-73
2023/09/02 00:10:33;;;;;;;19.13;10.23;;;;;;;16.23;100.00;101558.88;5087847;28;20424;-73
2023/09/02 00:12:58;;;;;;;18.75;9.90;;;;;;;16.17;100.00;101560.56;5089359;28;20409;-73
2023/09/02 00:15:23;;;;;;;18.20;10.30;;;;;;;16.11;100.00;101555.22;5079435;28;20391;-73
2023/09/02 00:17:49;;;;;;;18.10;9.35;;;;;;;16.12;100.00;101557.72;5085024;28;20028;-73
2023/09/02 00:20:14;;;;;;;19.42;10.02;;;;;;;16.08;100.00;101561.03;5082666;28;20055;-73
2023/09/02 00:22:40;;;;;;;17.60;8.60;;;;;;;16.11;100.00;101557.91;5083631;28;20459;-73
2023/09/02 00:25:06;;;;;;;21.60;8.50;;;;;;;16.10;100.00;101561.66;5070980;28;20035;-73
2023/09/02 00:27:31;;;;;;;16.27;9.75;;;;;;;16.12;100.00;101559.59;5082735;28;20048;-73
2023/09/02 00:29:57;;;;;;;18.83;11.02;;;;;;;16.14;100.00;101563.72;5088886;28;20032;-73
2023/09/02 00:32:23;;;;;;;18.83;10.18;;;;;;;16.12;100.00;101555.03;5087713;28;20923;-73
2023/09/02 00:34:48;;;;;;;17.58;9.45;;;;;;;16.14;100.00;101562.88;5077382;28;20029;-73
2023/09/02 00:37:14;;;;;;;17.40;9.85;;;;;;;16.09;100.00;101558.16;5078565;28;20110;-73
2023/09/02 00:39:39;;;;;;;20.00;9.65;;;;;;;16.16;100.00;101566.97;5079989;28;20043;-73
2023/09/02 00:42:06;;;;;;;17.40;8.52;;;;;;;16.15;100.00;101573.41;5056045;28;20033;-73
2023/09/02 00:44:34;;;;;;;17.13;9.65;;;;;;;16.12;100.00;101565.78;5084858;28;20474;-73
2023/09/02 00:47:02;;;;;;;17.05;9.40;;;;;;;16.18;100.00;101575.66;5072514;28;20066;-73
2023/09/02 00:49:27;;;;;;;18.35;10.45;;;;;;;16.18;100.00;101569.47;5081404;28;20020;-73
2023/09/02 00:51:52;;;;;;;19.27;9.88;;;;;;;16.18;100.00;101566.78;5073628;28;20373;-73
2023/09/02 00:54:18;;;;;;;17.38;9.45;;;;;;;16.14;100.00;101563.72;5073393;28;20135;-73
2023/09/02 00:56:43;;;;;;;17.90;10.07;;;;;;;16.14;100.00;101566.41;5075953;28;20032;-73
2023/09/02 00:59:08;;;;;;;17.15;9.15;;;;;;;16.12;100.00;101551.50;5087030;28;20035;-73
2023/09/02 01:01:35;;;;;;;19.10;10.18;;;;;;;16.16;100.00;101558.91;5075441;28;20425;-73
2023/09/02 01:04:04;;;;;;;15.90;9.25;;;;;;;16.14;100.00;101552.94;5084799;28;20024;-73
2023/09/02 01:06:30;;;;;;;19.33;10.15;;;;;;;16.19;100.00;101573.81;5088420;28;20051;-73
2023/09/02 01:08:55;;;;;;;18.35;10.00;;;;;;;16.07;100.00;101545.94;5080964;28;20050;-73
2023/09/02 01:11:21;;;;;;;17.83;10.07;;;;;;;16.15;100.00;101559.97;5077758;28;20386;-73
2023/09/02 01:13:46;;;;;;;20.90;10.82;;;;;;;16.19;100.00;101566.56;5072981;28;20040;-73
2023/09/02 01:16:12;;;;;;;20.20;10.45;;;;;;;16.20;100.00;101568.22;5072866;28;20032;-73
2023/09/02 01:18:37;;;;;;;19.30;11.73;;;;;;;16.21;100.00;101577.94;5084480;28;20039;-73
2023/09/02 01:21:38;;;;;;;17.58;10.48;;;;;;;16.20;100.00;101570.09;5072922;28;20074;-73
2023/09/02 01:24:36;;;;;;;17.10;9.55;;;;;;;16.17;100.00;101576.72;5076217;28;20114;-73
2023/09/02 01:27:27;;;;;;;18.27;9.85;;;;;;;16.16;100.00;101571.56;5073661;28;20522;-73
2023/09/02 01:30:19;;;;;;;17.73;8.88;;;;;;;16.17;100.00;101581.28;5090006;28;20035;-73
2023/09/02 01:32:50;;;;;;;18.23;10.15;;;;;;;16.16;100.00;101583.13;5091340;28;20491;-73
2023/09/02 01:35:19;;;;;;;16.60;9.30;;;;;;;16.16;100.00;101583.13;5092027;28;20552;-73
2023/09/02 01:37:50;;;;;;;19.08;9.98;;;;;;;16.11;100.00;101580.28;5089574;28;20452;-73
2023/09/02 01:40:22;;;;;;;16.63;9.83;;;;;;;16.14;100.00;101590.63;5084430;28;20510;-73
2023/09/02 01:42:51;;;;;;;18.73;9.45;;;;;;;16.14;100.00;101582.53;5086199;28;20273;-73
2023/09/02 01:45:18;;;;;;;17.40;9.75;;;;;;;16.17;100.00;101587.50;5081576;28;20032;-73
2023/09/02 01:47:45;;;;;;;19.60;10.63;;;;;;;16.16;100.00;101582.31;5078061;28;20127;-73
2023/09/02 01:50:14;;;;;;;18.00;9.55;;;;;;;16.15;100.00;101588.75;5078220;28;20046;-73
2023/09/02 01:52:41;;;;;;;16.17;8.73;;;;;;;16.14;100.00;101587.09;5072147;28;20116;-73
2023/09/02 01:55:07;;;;;;;18.73;9.90;;;;;;;16.08;100.00;101586.06;5080692;28;20055;-73
2023/09/02 01:57:33;;;;;;;17.75;9.07;;;;;;;16.11;100.00;101588.38;5079227;28;20476;-73
2023/09/02 01:59:58;;;;;;;19.02;9.63;;;;;;;16.10;100.00;101592.06;5072167;28;20051;-73
2023/09/02 02:02:23;;;;;;;16.67;9.25;;;;;;;16.12;100.00;101591.88;5072083;28;20068;-73
2023/09/02 02:04:53;;;;;;;22.02;11.13;;;;;;;16.08;100.00;101590.66;5085152;28;20127;-73
2023/09/02 02:07:22;;;;;;;17.48;9.82;;;;;;;16.02;100.00;101600.41;5091369;28;20027;-73
2023/09/02 02:09:50;;;;;;;19.15;10.43;;;;;;;15.97;100.00;101600.22;5074555;28;20552;-73
2023/09/02 02:12:17;;;;;;;19.13;9.73;;;;;;;16.00;100.00;101603.28;5072028;28;20484;-73
2023/09/02 02:14:44;;;;;;;16.83;8.95;;;;;;;16.05;100.00;101604.53;5089618;28;20483;-73
2023/09/02 02:17:09;;;;;;;17.92;10.02;;;;;;;15.98;100.00;101594.63;5074272;28;20471;-73
2023/09/02 02:19:35;;;;;;;21.35;10.70;;;;;;;16.01;100.00;101612.22;5084880;28;20032;-73
2023/09/02 02:22:02;;;;;;;17.73;9.60;;;;;;;15.97;100.00;101603.72;5086920;28;20064;-73
2023/09/02 02:24:27;;;;;;;19.63;9.85;;;;;;;15.92;100.00;101613.47;5090870;28;20024;-73
2023/09/02 02:26:53;;;;;;;17.30;8.85;;;;;;;15.86;100.00;101612.47;5090716;28;20105;-73
2023/09/02 02:29:18;;;;;;;16.83;8.80;;;;;;;15.88;100.00;101615.78;5078792;28;20427;-73
2023/09/02 02:31:44;;;;;;;17.80;8.43;;;;;;;15.86;100.00;101611.66;5071726;28;20107;-73
2023/09/02 02:34:09;;;;;;;18.20;10.27;;;;;;;15.85;100.00;101618.06;5070244;28;20025;-73
2023/09/02 02:36:35;;;;;;;20.25;9.80;;;;;;;15.84;100.00;101605.66;5075555;28;20039;-73
2023/09/02 02:39:04;;;;;;;15.88;8.55;;;;;;;15.83;100.00;101606.72;5090895;28;20097;-73
2023/09/02 02:41:30;;;;;;;19.05;9.50;;;;;;;15.81;100.00;101614.97;5077716;28;20056;-73
2023/09/02 02:43:55;;;;;;;19.55;11.43;;;;;;;15.78;100.00;101607.34;5073709;28;20075;-73
2023/09/02 02:46:21;;;;;;;16.27;9.90;;;;;;;15.83;100.00;101615.59;5076217;28;20029;-73
2023/09/02 02:48:46;;;;;;;18.58;9.18;;;;;;;15.83;100.00;101623.66;5079504;28;20032;-73
2023/09/02 02:51:11;;;;;;;17.20;9.52;;;;;;;15.74;100.00;101609.59;5088664;28;20032;-73
2023/09/02 02:53:37;;;;;;;26.58;10.48;;;;;;;15.81;100.00;101611.47;5090338;28;20059;-73
2023/09/02 02:56:02;;;;;;;19.30;10.30;;;;;;;15.80;100.00;101609.78;5083790;28;20032;-73
2023/09/02 02:58:28;;;;;;;18.85;9.88;;;;;;;15.78;100.00;101616.22;5085081;28;20029;-73
2023/09/02 03:01:07;;;;;;;17.85;9.68;;;;;;;15.86;100.00;101628.63;5089286;28;20066;-73
2023/09/02 03:03:33;;;;;;;17.52;9.05;;;;;;;15.83;100.00;101626.34;5080400;28;20094;-73
2023/09/02 03:06:00;;;;;;;16.45;8.52;;;;;;;15.82;100.00;101629.25;5073007;28;20040;-73
2023/09/02 03:08:26;;;;;;;18.83;9.70;;;;;;;15.80;100.00;101626.78;5070835;28;20059;-73
2023/09/02 03:11:03;;;;;;;19.50;9.57;;;;;;;15.75;100.00;101613.16;5069616;28;20028;-73
2023/09/02 03:13:30;;;;;;;20.30;10.48;;;;;;;15.74;100.00;101611.47;5088239;28;20044;-73
2023/09/02 03:15:56;;;;;;;18.02;9.23;;;;;;;15.73;100.00;101607.97;5078326;28;20028;-73
2023/09/02 03:18:22;;;;;;;17.35;9.70;;;;;;;15.72;100.00;101613.56;5076595;28;20047;-73
2023/09/02 03:20:47;;;;;;;17.63;8.60;;;;;;;15.69;100.00;101611.28;5080641;28;20056;-73
2023/09/02 03:23:14;;;;;;;20.75;10.07;;;;;;;15.70;100.00;101612.97;5071925;28;20102;-73
2023/09/02 03:25:39;;;;;;;18.40;9.32;;;;;;;15.68;100.00;101613.13;5078130;28;20498;-73
2023/09/02 03:28:05;;;;;;;19.92;9.85;;;;;;;15.74;100.00;101619.53;5068867;28;20056;-73
2023/09/02 03:30:30;;;;;;;18.42;9.07;;;;;;;15.70;100.00;101611.09;5069044;28;20036;-73
2023/09/02 03:32:56;;;;;;;18.10;9.88;;;;;;;15.73;100.00;101613.34;5070410;28;20037;-73
2023/09/02 03:35:21;;;;;;;16.83;8.68;;;;;;;15.75;100.00;101622.03;5082714;28;20036;-73
2023/09/02 03:37:46;;;;;;;19.23;10.52;;;;;;;15.75;100.00;101622.03;5083231;28;20028;-73
2023/09/02 03:40:12;;;;;;;19.40;10.07;;;;;;;15.76;100.00;101615.59;5076345;28;20042;-73
2023/09/02 03:42:37;;;;;;;16.30;9.18;;;;;;;15.77;100.00;101616.44;5089642;28;20102;-73
2023/09/02 03:45:03;;;;;;;18.65;10.20;;;;;;;15.74;100.00;101611.47;5078820;28;20036;-73
2023/09/02 03:47:32;;;;;;;16.25;8.40;;;;;;;15.81;100.00;101627.59;5085663;28;20032;-73
2023/09/02 03:50:02;;;;;;;16.70;8.98;;;;;;;15.81;100.00;101625.75;5089514;28;20055;-73
2023/09/02 03:52:27;;;;;;;17.55;9.57;;;;;;;15.79;100.00;101627.81;5069915;28;20149;-73
2023/09/02 03:54:53;;;;;;;21.20;9.57;;;;;;;15.81;100.00;101630.28;5069970;28;20479;-73
2023/09/02 03:57:19;;;;;;;17.70;9.32;;;;;;;15.83;100.00;101631.72;5070036;28;20036;-73
2023/09/02 03:59:44;;;;;;;17.95;10.30;;;;;;;15.85;100.00;101637.75;5077476;28;20503;-73
2023/09/02 04:02:09;;;;;;;17.80;9.63;;;;;;;15.87;100.00;101642.88;5086060;28;20054;-73
2023/09/02 04:04:35;;;;;;;19.70;9.95;;;;;;;15.87;100.00;101643.72;5071522;28;20064;-73
2023/09/02 04:07:00;;;;;;;16.52;9.68;;;;;;;15.89;100.00;101638.94;5070249;28;20097;-73
2023/09/02 04:09:25;;;;;;;18.52;10.18;;;;;;;15.89;100.00;101646.19;5085486;28;20039;-73
2023/09/02 04:11:51;;;;;;;19.48;10.52;;;;;;;15.91;100.00;101644.94;5077256;28;20031;-73
2023/09/02 04:14:16;;;;;;;21.48;11.50;;;;;;;15.92;100.00;101637.69;5068469;28;20029;-73
2023/09/02 04:16:42;;;;;;;20.65;11.95;;;;;;;15.86;100.00;101641.25;5087887;28;20506;-73
2023/09/02 04:19:07;;;;;;;20.88;11.18;;;;;;;15.90;100.00;101646.00;5089184;28;20796;-73
2023/09/02 04:21:32;;;;;;;18.98;10.43;;;;;;;15.91;100.00;101649.50;5089139;28;20035;-73
2023/09/02 04:23:58;;;;;;;19.88;11.65;;;;;;;15.88;100.00;101639.19;5085910;28;20110;-73
2023/09/02 04:26:23;;;;;;;22.23;11.02;;;;;;;15.90;100.00;101640.63;5080885;28;20052;-73
2023/09/02 04:28:49;;;;;;;23.15;12.68;;;;;;;15.92;100.00;101640.38;5082658;28;20016;-73
2023/09/02 04:31:15;;;;;;;20.52;10.35;;;;;;;15.91;100.00;101641.44;5077651;28;20035;-73
2023/09/02 04:33:40;;;;;;;16.60;9.25;;;;;;;15.85;100.00;101651.19;5084904;28;20036;-73
2023/09/02 04:36:06;;;;;;;16.45;9.30;;;;;;;15.84;100.00;101654.06;5079191;28;20461;-73
2023/09/02 04:38:31;;;;;;;20.50;11.25;;;;;;;15.85;100.00;101648.50;5083434;28;20036;-73
2023/09/02 04:41:01;;;;;;;19.55;11.07;;;;;;;15.86;100.00;101652.81;5073693;28;20056;-73
2023/09/02 04:43:26;;;;;;;18.45;11.60;;;;;;;15.89;100.00;101656.97;5088462;28;20480;-73
2023/09/02 04:45:52;;;;;;;20.08;11.13;;;;;;;15.88;100.00;101655.31;5077650;28;20105;-73
2023/09/02 04:48:17;;;;;;;18.35;10.95;;;;;;;15.88;100.00;101645.38;5076653;28;20045;-73
2023/09/02 04:50:43;;;;;;;17.35;11.02;;;;;;;15.92;100.00;101653.84;5069565;28;20024;-73
2023/09/02 04:53:08;;;;;;;19.20;9.82;;;;;;;15.95;100.00;101658.78;5069384;28;20032;-73
2023/09/02 04:55:38;;;;;;;19.55;10.77;;;;;;;15.90;100.00;101658.59;5072697;28;20027;-73
2023/09/02 04:58:03;;;;;;;16.17;9.40;;;;;;;15.89;100.00;101662.34;5086635;28;20020;-73
2023/09/02 05:00:29;;;;;;;19.00;10.93;;;;;;;15.88;100.00;101666.91;5066915;28;20047;-73
2023/09/02 05:02:55;;;;;;;18.77;9.93;;;;;;;15.87;100.00;101667.09;5068799;28;20033;-73
2023/09/02 05:05:22;;;;;;;17.95;10.98;;;;;;;15.82;100.00;101665.03;5086392;28;20036;-73
2023/09/02 05:07:48;;;;;;;16.20;10.38;;;;;;;15.82;100.00;101677.66;5085778;28;20032;-73
2023/09/02 05:10:14;;;;;;;16.10;9.95;;;;;;;15.82;100.00;101681.19;5085269;28;20379;-73
2023/09/02 05:12:40;;;;;;;17.77;9.88;;;;;;;15.76;100.00;101669.41;5078202;28;20037;-73
2023/09/02 05:15:06;;;;;;;18.15;10.15;;;;;;;15.77;100.00;101668.38;5071288;28;20616;-73
2023/09/02 05:17:32;;;;;;;16.00;8.68;;;;;;;15.74;100.00;101666.09;5067618;28;20047;-73
2023/09/02 05:19:58;;;;;;;17.08;8.80;;;;;;;15.74;100.00;101674.16;5067781;28;20021;-73
2023/09/02 05:22:24;;;;;;;18.75;9.82;;;;;;;15.76;100.00;101671.28;5088135;28;20032;-73
2023/09/02 05:24:49;;;;;;;16.75;9.13;;;;;;;15.74;100.00;101676.03;5089937;28;20024;-73
2023/09/02 05:27:15;;;;;;;16.95;9.18;;;;;;;15.77;100.00;101675.59;5089412;28;20194;-74
2023/09/02 05:29:41;;;;;;;17.98;11.20;;;;;;;15.80;100.00;101679.72;5087868;28;20106;-73
2023/09/02 05:32:08;;;;;;;17.77;10.07;;;;;;;15.77;100.00;101681.84;5090853;28;20040;-73
2023/09/02 05:34:33;;;;;;;18.60;10.18;;;;;;;15.81;100.00;101681.41;5091574;28;20032;-73
2023/09/02 05:37:00;;;;;;;16.83;9.65;;;;;;;15.80;100.00;101685.97;5082582;28;20483;-73
2023/09/02 05:39:25;;;;;;;17.75;10.27;;;;;;;15.84;100.00;101689.88;5085266;28;20034;-73
2023/09/02 05:41:50;;;;;;;18.38;11.00;;;;;;;15.89;100.00;101697.31;5075927;28;20028;-73
2023/09/02 05:44:16;;;;;;;20.08;10.50;;;;;;;15.91;100.00;101700.63;5072298;28;20028;-73
2023/09/02 05:46:42;;;;;;;15.32;9.23;;;;;;;15.93;100.00;101696.69;5070859;28;20494;-73
2023/09/02 05:49:07;;;;;;;16.55;9.32;;;;;;;15.97;100.00;101710.53;5083348;28;20540;-73
2023/09/02 05:51:33;;;;;;;18.00;10.13;;;;;;;15.98;100.00;101715.72;5076392;28;20112;-73
2023/09/02 05:53:58;;;;;;;17.60;10.23;;;;;;;16.01;100.00;101717.16;5072197;28;20437;-73
2023/09/02 05:56:23;;;;;;;20.40;10.18;;;;;;;15.99;100.00;101714.66;5090466;28;20394;-73
2023/09/02 05:58:49;;;;;;;25.15;12.25;;;;;;;16.02;100.00;101713.41;5082189;28;20039;-73
2023/09/02 06:01:14;;;;;;;25.60;12.70;;;;;;;16.04;100.00;101719.41;5091525;28;20024;-73
2023/09/02 06:03:41;;;;;;;17.10;9.73;;;;;;;16.05;100.00;101718.38;5091331;28;20459;-73
2023/09/02 06:06:12;;;;;;;22.20;11.77;;;;;;;16.10;100.00;101729.31;5091321;28;20042;-72
2023/09/02 06:08:38;;;;;;;;;;;;;;;16.16;100.00;101722.25;5091881;28;20410;-72
2023/09/02 06:11:04;;;;;;;18.30;10.00;;;;;;;16.12;100.00;101727.25;5089163;28;20007;-73
2023/09/02 06:13:30;;;;;;;18.73;10.80;;;;;;;16.04;100.00;101716.72;5072021;28;20165;-73
2023/09/02 06:15:59;;;;;;;19.45;11.15;;;;;;;16.17;100.00;101734.69;5071805;28;20032;-73
2023/09/02 06:18:25;;;;;;;18.50;11.40;;;;;;;16.20;100.00;101732.41;5084274;28;20131;-73
2023/09/02 06:20:50;;;;;;;22.35;11.77;;;;;;;16.20;100.00;101736.97;5091001;28;20118;-72
2023/09/02 06:23:15;;;;;;;19.95;11.75;;;;;;;16.14;100.00;101717.13;5085391;28;20476;-72
2023/09/02 06:25:41;;;;;;;20.30;12.50;;;;;;;16.23;100.00;101735.72;5086073;28;20047;-73
2023/09/02 06:28:06;;;;;;;23.92;11.98;;;;;;;16.34;100.00;101751.19;5084151;28;20052;-73
2023/09/02 06:30:31;;;;;;;21.58;12.80;;;;;;;16.37;100.00;101750.75;5077241;28;20391;-73
2023/09/02 06:32:57;;;;;;;21.17;13.77;;;;;;;16.41;100.00;101750.13;5088859;28;20051;-73
2023/09/02 06:35:22;;;;;;;20.80;13.57;;;;;;;16.46;100.00;101749.50;5082925;28;20119;-73
2023/09/02 06:37:49;;;;;;;20.42;13.65;;;;;;;16.53;100.00;101757.53;5088989;28;20106;-73
2023/09/02 06:40:14;;;;;;;20.50;13.52;;;;;;;16.54;100.00;101753.81;5071308;28;20024;-72
2023/09/02 06:42:40;;;;;;;20.98;14.38;;;;;;;16.58;100.00;101755.03;5069748;28;20047;-76
2023/09/02 06:45:06;;;;;;;23.00;15.38;;;;;;;16.63;100.00;101760.59;5070617;28;20176;-72
2023/09/02 06:47:32;;;;;;;26.02;16.08;;;;;;;16.62;100.00;101759.78;5069311;28;20403;-69
2023/09/02 06:49:57;;;;;;;23.85;17.30;;;;;;;16.67;100.00;101766.41;5068021;28;20020;-72
2023/09/02 06:52:22;;;;;;;24.10;16.85;;;;;;;16.68;100.00;101773.44;5067925;28;20119;-72
2023/09/02 06:54:48;;;;;;;22.77;16.77;;;;;;;16.68;100.00;101787.72;5068801;28;20042;-72
2023/09/02 06:57:14;;;;;;;23.88;17.23;;;;;;;16.72;100.00;101786.25;5066182;28;21028;-72
2023/09/02 06:59:39;;;;;;;25.67;16.55;;;;;;;16.75;100.00;101793.09;5067557;28;20923;-72
2023/09/02 07:02:05;;;;;;;24.58;15.82;;;;;;;16.76;100.00;101795.56;5068052;28;20028;-72
2023/09/02 07:04:30;;;;;;;21.75;15.82;;;;;;;16.77;100.00;101802.66;5082368;28;20032;-72
2023/09/02 07:06:56;;;;;;;22.35;16.75;;;;;;;16.80;100.00;101822.94;5086831;28;20096;-72
2023/09/02 07:09:21;;;;;;;22.02;16.63;;;;;;;16.82;100.00;101819.00;5067819;28;20537;-72
2023/09/02 07:11:47;;;;;;;20.20;14.07;;;;;;;16.83;100.00;101825.19;5079891;28;20023;-72
2023/09/02 07:14:12;;;;;;;22.20;14.88;;;;;;;16.82;100.00;101828.91;5086085;28;20067;-72
2023/09/02 07:16:37;;;;;;;23.55;16.92;;;;;;;16.86;100.00;101832.84;5069506;28;20074;-73
2023/09/02 07:19:03;;;;;;;22.58;16.58;;;;;;;16.88;100.00;101836.16;5075676;28;20032;-72
2023/09/02 07:21:29;;;;;;;24.20;17.73;;;;;;;16.91;100.00;101846.50;5086834;28;20036;-72
2023/09/02 07:23:54;;;;;;;22.48;14.25;;;;;;;16.95;100.00;101839.66;5086545;28;20031;-72
2023/09/02 07:26:20;;;;;;;20.88;13.45;;;;;;;16.98;100.00;101850.00;5083965;28;20087;-72
2023/09/02 07:28:45;;;;;;;21.85;16.42;;;;;;;17.00;100.00;101850.63;5102220;28;20113;-72
2023/09/02 07:31:11;;;;;;;23.20;15.77;;;;;;;17.07;100.00;101859.50;5084124;28;20046;-72
2023/09/02 07:33:37;;;;;;;31.30;17.48;;;;;;;17.07;100.00;101851.41;5067229;28;20135;-72
2023/09/02 07:36:10;;;;;;;23.30;15.48;;;;;;;17.17;100.00;101852.81;5079088;28;20147;-74
2023/09/02 07:38:37;;;;;;;23.40;15.68;;;;;;;17.24;100.00;101859.00;5065618;28;20043;-72
2023/09/02 07:41:02;;;;;;;23.60;16.98;;;;;;;17.30;100.00;101858.94;5066355;28;20040;-72
2023/09/02 07:43:27;;;;;;;26.50;20.02;;;;;;;17.31;100.00;101855.19;5067422;28;20023;-71
2023/09/02 07:45:54;;;;;;;31.10;22.23;;;;;;;17.38;100.00;101857.06;5067722;28;20119;-72
2023/09/02 07:48:19;;;;;;;28.17;20.33;;;;;;;17.40;100.00;101855.78;5067490;28;20024;-71
2023/09/02 07:50:44;;;;;;;29.40;19.55;;;;;;;17.48;100.00;101863.63;5066004;28;20509;-75
2023/09/02 07:53:10;;;;;;;26.83;19.60;;;;;;;17.50;100.00;101879.56;5072662;28;20086;-73
2023/09/02 07:55:37;;;;;;;26.10;20.00;;;;;;;17.53;100.00;101874.59;5083040;28;20032;-70
2023/09/02 07:58:02;;;;;;;29.85;21.90;;;;;;;17.57;100.00;101880.34;5074974;28;20066;-73
2023/09/02 08:00:28;;;;;;;30.77;22.17;;;;;;;17.65;100.00;101887.34;5071472;28;20081;-73
2023/09/02 08:02:54;;;;;;;28.83;19.65;;;;;;;17.67;100.00;101879.88;5086675;28;20032;-72
2023/09/02 08:05:19;;;;;;;28.25;20.30;;;;;;;17.69;100.00;101877.78;5085657;28;20074;-73
2023/09/02 08:07:45;;;;;;;29.92;20.48;;;;;;;17.73;100.00;101881.69;5086618;28;20126;-73
2023/09/02 08:10:10;;;;;;;29.92;20.65;;;;;;;17.73;100.00;101865.50;5073666;28;20056;-72
2023/09/02 08:12:36;;;;;;;30.77;20.27;;;;;;;17.85;100.00;101884.56;5072334;28;20506;-72
2023/09/02 08:15:01;;;;;;;30.55;20.98;;;;;;;17.92;100.00;101869.97;5079046;28;20028;-72
2023/09/02 08:17:26;;;;;;;30.40;19.58;;;;;;;17.95;100.00;101883.00;5067501;28;20035;-72
2023/09/02 08:19:52;;;;;;;29.08;18.35;;;;;;;17.89;100.00;101881.22;5086811;28;20035;-72
2023/09/02 08:22:17;;;;;;;31.40;20.88;;;;;;;17.89;100.00;101888.44;5086091;28;20053;-72
2023/09/02 08:24:43;;;;;;;32.20;21.70;;;;;;;17.90;100.00;101896.34;5085529;28;20116;-71
2023/09/02 08:27:08;;;;;;;31.65;21.73;;;;;;;17.87;100.00;101894.09;5084589;28;20150;-71
2023/09/02 08:29:33;;;;;;;29.35;20.88;;;;;;;17.89;100.00;101885.75;5086831;28;20119;-72
2023/09/02 08:32:00;;;;;;;31.85;21.00;;;;;;;17.94;100.00;101886.75;5085388;28;20023;-72
2023/09/02 08:34:25;;;;;;;29.77;21.45;;;;;;;17.98;100.00;101886.31;5086635;28;20490;-72
2023/09/02 08:36:51;;;;;;;31.10;21.55;;;;;;;17.98;100.00;101889.84;5086682;28;20024;-72
2023/09/02 08:39:16;;;;;;;29.73;20.15;;;;;;;17.93;100.00;101873.47;5086688;28;20035;-73
2023/09/02 08:41:45;;;;;;;30.20;19.85;;;;;;;17.96;100.00;101884.66;5080322;28;20030;-73
2023/09/02 08:44:15;;;;;;;29.95;20.42;;;;;;;17.99;100.00;101894.19;5079982;28;20044;-73
2023/09/02 08:46:44;;;;;;;27.88;20.40;;;;;;;18.01;100.00;101897.50;5073927;28;20016;-73
2023/09/02 08:49:09;;;;;;;30.58;20.75;;;;;;;18.00;100.00;101890.47;5086222;28;20548;-73
2023/09/02 08:51:35;;;;;;;28.95;21.20;;;;;;;18.02;100.00;101892.91;5076151;28;20056;-73
2023/09/02 08:54:01;;;;;;;32.00;21.65;;;;;;;18.04;100.00;101893.53;5081145;28;20027;-73
2023/09/02 08:56:28;;;;;;;29.45;20.85;;;;;;;18.08;100.00;101900.97;5070134;28;20246;-73
2023/09/02 08:58:54;;;;;;;30.20;20.73;;;;;;;18.09;100.00;101893.69;5083312;28;20127;-73
2023/09/02 09:01:21;;;;;;;34.65;23.02;;;;;;;18.14;100.00;101900.09;5072441;28;20199;-73
2023/09/02 09:03:54;;;;;;;32.95;22.27;;;;;;;18.20;100.00;101917.25;5075994;28;20032;-73
2023/09/02 09:06:22;;;;;;;32.88;23.08;;;;;;;18.16;100.00;101921.47;5087119;28;20074;-73
2023/09/02 09:08:51;;;;;;;33.40;23.55;;;;;;;18.10;100.00;101920.50;5087649;28;20035;-73
2023/09/02 09:11:17;;;;;;;33.90;23.88;;;;;;;18.04;100.00;101934.03;5086777;28;20599;-73
2023/09/02 09:13:48;;;;;;;35.20;23.80;;;;;;;18.00;100.00;101935.50;5088432;28;20105;-80
2023/09/02 09:16:19;;;;;;;35.72;23.88;;;;;;;18.01;100.00;101934.47;5072547;28;20029;-74
2023/09/02 09:18:45;;;;;;;31.27;21.83;;;;;;;18.00;100.00;101930.09;5078592;28;20361;-75
2023/09/02 09:21:11;;;;;;;31.88;22.10;;;;;;;18.01;100.00;101926.38;5089952;28;20043;-71
2023/09/02 09:23:36;;;;;;;33.90;21.83;;;;;;;18.03;100.00;101924.28;5088485;28;20032;-70
2023/09/02 09:26:06;;;;;;;31.33;20.63;;;;;;;18.09;100.00;101924.22;5069050;28;20032;-70
2023/09/02 09:28:59;;;;;;;30.58;20.58;;;;;;;18.08;100.00;101932.56;5070722;28;20028;-70
2023/09/02 09:31:26;;;;;;;29.45;19.90;;;;;;;18.00;100.00;101928.25;5088046;28;20039;-70
2023/09/02 09:33:54;;;;;;;30.13;20.38;;;;;;;17.91;100.00;101924.16;5089675;28;20147;-70
2023/09/02 09:36:23;;;;;;;30.45;21.48;;;;;;;18.07;100.00;101938.97;5089386;28;20636;-71
2023/09/02 09:38:52;;;;;;;31.70;19.98;;;;;;;18.08;100.00;101937.97;5090018;28;20024;-71
2023/09/02 09:41:18;;;;;;;32.60;18.92;;;;;;;18.13;100.00;101957.00;5089707;28;20467;-70
2023/09/02 09:43:43;;;;;;;30.92;22.70;;;;;;;18.09;100.00;101955.78;5078379;28;20029;-70
2023/09/02 09:46:12;;;;;;;33.60;22.10;;;;;;;18.03;100.00;101959.38;5069735;28;20032;-71
2023/09/02 09:48:45;;;;;;;29.42;19.65;;;;;;;18.13;100.00;101962.38;5069577;28;20032;-71
2023/09/02 09:51:21;;;;;;;32.78;22.58;;;;;;;18.23;100.00;101968.13;5070142;28;20487;-71
2023/09/02 09:53:47;;;;;;;31.77;22.35;;;;;;;18.24;100.00;101988.69;5089143;28;20032;-71
2023/09/02 09:56:12;;;;;;;33.13;23.27;;;;;;;18.25;100.00;101989.53;5089367;28;20036;-71
2023/09/02 09:58:38;;;;;;;32.63;22.50;;;;;;;18.33;100.00;101989.25;5089633;28;20064;-71
2023/09/02 10:01:03;;;;;;;33.88;23.27;;;;;;;18.43;100.00;101984.19;5089431;28;20047;-71
2023/09/02 10:03:30;;;;;;;32.85;21.60;;;;;;;18.54;100.00;101982.63;5089460;28;20046;-71
2023/09/02 10:05:59;;;;;;;30.95;21.48;;;;;;;18.64;100.00;101985.66;5088886;28;20028;-72
2023/09/02 10:08:25;;;;;;;28.33;19.20;;;;;;;18.64;100.00;101987.53;5074317;28;20023;-71
2023/09/02 10:10:50;;;;;;;31.63;19.75;;;;;;;18.62;100.00;101999.38;5072887;28;20388;-72
2023/09/02 10:13:17;;;;;;;30.45;19.35;;;;;;;18.55;100.00;101995.09;5069202;28;20510;-70
2023/09/02 10:15:43;;;;;;;28.65;19.25;;;;;;;18.52;100.00;102001.78;5069487;28;20037;-70
2023/09/02 10:18:09;;;;;;;28.73;20.27;;;;;;;18.50;100.00;101995.75;5069975;28;20060;-71
2023/09/02 10:20:35;;;;;;;29.73;20.73;;;;;;;18.48;100.00;101999.72;5085565;28;20498;-71
2023/09/02 10:23:08;;;;;;;29.63;20.77;;;;;;;18.50;100.00;101997.63;5076463;28;20032;-72
2023/09/02 10:26:00;;;;;;;29.05;20.33;;;;;;;18.60;100.00;102006.91;5076345;28;20025;-72
2023/09/02 10:28:38;;;;;;;32.25;22.55;;;;;;;18.68;100.00;102013.03;5088903;28;20231;-71
2023/09/02 10:31:13;;;;;;;29.58;18.45;;;;;;;18.69;100.00;102015.53;5088598;28;20545;-73
2023/09/02 10:33:50;;;;;;;29.55;18.88;;;;;;;18.68;100.00;102018.44;5089046;28;20085;-73
2023/09/02 10:36:18;;;;;;;29.40;21.95;;;;;;;18.66;100.00;102013.28;5081142;28;20024;-73
2023/09/02 10:38:47;;;;;;;29.92;20.35;;;;;;;18.60;100.00;102006.03;5069499;28;20108;-73
2023/09/02 10:41:17;;;;;;;27.60;19.10;;;;;;;18.63;100.00;102016.44;5088567;28;20589;-73
2023/09/02 10:43:44;;;;;;;28.60;19.70;;;;;;;18.60;100.00;102008.75;5088414;28;20024;-73
2023/09/02 10:46:10;;;;;;;30.73;21.00;;;;;;;18.72;100.00;102022.38;5075503;28;20032;-73
2023/09/02 10:48:38;;;;;;;30.13;19.42;;;;;;;18.75;100.00;102017.38;5088462;28;20035;-73
2023/09/02 10:51:08;;;;;;;29.30;19.58;;;;;;;18.85;100.00;102021.47;5088238;28;20035;-73
2023/09/02 10:53:48;;;;;;;28.02;18.73;;;;;;;19.05;100.00;102027.50;5088329;28;20667;-73
2023/09/02 10:56:31;;;;;;;31.95;20.45;;;;;;;19.14;100.00;102018.00;5087579;28;20136;-73
2023/09/02 10:58:58;;;;;;;31.33;21.45;;;;;;;19.18;100.00;102023.81;5088186;28;20051;-73
2023/09/02 11:01:24;;;;;;;28.15;18.77;;;;;;;19.19;100.00;102022.75;5088197;28;20529;-73
2023/09/02 11:03:53;;;;;;;29.90;20.80;;;;;;;19.12;100.00;102024.69;5088162;28;20036;-73